Time;durP1;ratioP1;P1;durP2;ratioP2;P2;SDS_P1;SDS_P2;PMS_P1;PMS_P2;Temp;Humidity;BMP_temperature;BMP_pressure;BME280_temperature;BME280_humidity;BME280_pressure;Samples;Min_cycle;Max_cycle;Signal;HPM_P1;HPM_P2
2021/08/04 00:01:08;;;;;;;26.67;5.50;;;;;;;;;;5029991;28;20370;-38
2021/08/04 00:03:36;;;;;;;25.65;6.60;;;;;;;;;;5032467;28;20041;-39
2021/08/04 00:06:03;;;;;;;25.45;6.15;;;;;;;;;;5039734;28;20140;-38
2021/08/04 00:08:30;;;;;;;29.42;6.13;;;;;;;;;;5036494;28;20054;-37
2021/08/04 00:10:57;;;;;;;32.10;6.30;;;;;;;;;;5040807;28;20021;-39
2021/08/04 00:13:24;;;;;;;29.85;6.40;;;;;;;;;;5034336;28;20396;-44
2021/08/04 00:15:51;;;;;;;27.80;6.03;;;;;;;;;;5036673;28;20037;-40
2021/08/04 00:18:18;;;;;;;29.05;5.47;;;;;;;;;;5026756;28;20025;-38
2021/08/04 00:20:45;;;;;;;33.22;6.18;;;;;;;;;;5035085;28;20563;-39
2021/08/04 00:23:12;;;;;;;28.25;6.40;;;;;;;;;;5035522;28;20055;-43
2021/08/04 00:25:39;;;;;;;23.77;5.75;;;;;;;;;;5035038;28;20017;-37
2021/08/04 00:28:06;;;;;;;21.45;5.90;;;;;;;;;;5016373;28;20025;-39
2021/08/04 00:30:33;;;;;;;25.05;5.85;;;;;;;;;;5033275;28;21930;-37
2021/08/04 00:33:00;;;;;;;20.85;5.63;;;;;;;;;;5034554;28;20019;-39
2021/08/04 00:35:27;;;;;;;32.70;6.30;;;;;;;;;;5035333;28;20079;-40
2021/08/04 00:37:54;;;;;;;33.60;6.82;;;;;;;;;;5028187;28;20065;-36
2021/08/04 00:40:22;;;;;;;32.25;6.60;;;;;;;;;;5032047;28;20082;-35
2021/08/04 00:42:49;;;;;;;23.52;5.85;;;;;;;;;;5033402;28;20056;-38
2021/08/04 00:45:16;;;;;;;31.02;6.53;;;;;;;;;;5036953;28;20083;-42
2021/08/04 00:47:43;;;;;;;26.83;5.93;;;;;;;;;;5037611;28;20410;-39
2021/08/04 00:50:10;;;;;;;20.60;5.95;;;;;;;;;;5035713;28;20384;-37
2021/08/04 00:52:38;;;;;;;18.95;5.72;;;;;;;;;;5034068;28;20121;-40
2021/08/04 00:55:05;;;;;;;28.15;6.68;;;;;;;;;;5031451;28;20504;-36
2021/08/04 00:57:32;;;;;;;30.02;6.22;;;;;;;;;;5036090;28;20384;-40
2021/08/04 00:59:59;;;;;;;29.85;6.75;;;;;;;;;;5041232;28;20107;-35
2021/08/04 01:02:33;;;;;;;42.60;6.85;;;;;;;;;;5031795;28;20384;-36
2021/08/04 01:05:05;;;;;;;30.38;6.68;;;;;;;;;;5035826;28;20385;-36
2021/08/04 01:07:32;;;;;;;34.55;7.30;;;;;;;;;;5036686;28;20468;-36
2021/08/04 01:10:07;;;;;;;23.33;6.45;;;;;;;;;;5039529;28;20044;-36
2021/08/04 01:12:43;;;;;;;30.05;7.38;;;;;;;;;;5044379;28;20025;-37
2021/08/04 01:15:10;;;;;;;25.65;7.30;;;;;;;;;;5044055;28;20045;-38
2021/08/04 01:17:39;;;;;;;31.90;8.10;;;;;;;;;;5037991;28;21213;-36
2021/08/04 01:20:11;;;;;;;31.55;9.02;;;;;;;;;;5041677;28;20037;-36
2021/08/04 01:22:47;;;;;;;30.92;8.05;;;;;;;;;;5037769;28;20455;-36
2021/08/04 01:25:19;;;;;;;28.77;8.52;;;;;;;;;;5026021;28;20042;-36
2021/08/04 01:27:48;;;;;;;28.85;8.15;;;;;;;;;;5036971;28;20022;-36
2021/08/04 01:30:15;;;;;;;27.20;8.27;;;;;;;;;;5031645;28;20052;-36
2021/08/04 01:32:42;;;;;;;31.50;8.38;;;;;;;;;;5037943;28;20037;-36
2021/08/04 01:35:09;;;;;;;29.08;7.40;;;;;;;;;;5041918;28;20540;-37
2021/08/04 01:37:37;;;;;;;29.92;7.57;;;;;;;;;;5035023;28;20058;-35
2021/08/04 01:40:07;;;;;;;34.70;7.85;;;;;;;;;;5032293;28;20033;-36
2021/08/04 01:42:37;;;;;;;21.17;6.85;;;;;;;;;;5013551;28;20026;-36
2021/08/04 01:45:05;;;;;;;22.67;7.15;;;;;;;;;;5019766;28;20022;-35
2021/08/04 01:47:33;;;;;;;24.90;6.55;;;;;;;;;;5033482;28;20049;-35
2021/08/04 01:50:00;;;;;;;25.77;7.22;;;;;;;;;;5037400;28;20025;-36
2021/08/04 01:52:28;;;;;;;28.02;6.97;;;;;;;;;;5032796;28;20025;-42
2021/08/04 01:54:56;;;;;;;28.58;7.45;;;;;;;;;;5035762;28;20022;-38
2021/08/04 01:57:23;;;;;;;30.60;7.47;;;;;;;;;;5033309;28;20037;-38
2021/08/04 01:59:50;;;;;;;32.95;7.30;;;;;;;;;;5028696;28;20104;-37
2021/08/04 02:02:17;;;;;;;27.10;7.15;;;;;;;;;;5034196;28;20041;-39
2021/08/04 02:04:44;;;;;;;23.88;6.47;;;;;;;;;;5032073;28;20440;-37
2021/08/04 02:07:16;;;;;;;28.42;6.22;;;;;;;;;;5026191;28;20030;-36
2021/08/04 02:09:49;;;;;;;20.67;6.03;;;;;;;;;;5027919;28;20021;-41
2021/08/04 02:12:16;;;;;;;21.70;6.40;;;;;;;;;;5026066;28;20428;-37
2021/08/04 02:14:46;;;;;;;29.15;6.40;;;;;;;;;;5028144;28;20043;-38
2021/08/04 02:17:19;;;;;;;24.00;6.00;;;;;;;;;;5030596;28;20037;-37
2021/08/04 02:19:50;;;;;;;29.63;6.57;;;;;;;;;;5030238;28;20018;-37
2021/08/04 02:22:23;;;;;;;20.15;6.50;;;;;;;;;;5027270;28;20413;-38
2021/08/04 02:24:54;;;;;;;18.10;5.82;;;;;;;;;;5028266;28;20477;-37
2021/08/04 02:27:21;;;;;;;24.42;5.68;;;;;;;;;;5027560;28;20025;-37
2021/08/04 02:29:49;;;;;;;23.60;6.32;;;;;;;;;;5031542;28;20108;-41
2021/08/04 02:32:17;;;;;;;19.55;6.63;;;;;;;;;;5031771;28;20075;-40
2021/08/04 02:34:44;;;;;;;25.80;5.85;;;;;;;;;;5031255;28;20029;-41
2021/08/04 02:37:11;;;;;;;22.73;6.15;;;;;;;;;;5007840;28;20033;-39
2021/08/04 02:39:38;;;;;;;21.27;5.47;;;;;;;;;;5030547;28;20028;-40
2021/08/04 02:42:06;;;;;;;19.60;5.25;;;;;;;;;;5030174;28;20568;-40
2021/08/04 02:44:33;;;;;;;13.82;5.50;;;;;;;;;;5030616;28;20722;-39
2021/08/04 02:47:00;;;;;;;12.68;5.40;;;;;;;;;;5029912;28;20026;-41
2021/08/04 02:49:27;;;;;;;12.05;4.65;;;;;;;;;;5024821;28;20076;-39
2021/08/04 02:51:54;;;;;;;23.25;6.45;;;;;;;;;;5030501;28;20017;-40
2021/08/04 02:54:22;;;;;;;19.90;5.28;;;;;;;;;;5027187;28;20025;-40
2021/08/04 02:56:49;;;;;;;15.65;5.57;;;;;;;;;;5028678;28;20036;-40
2021/08/04 02:59:16;;;;;;;16.38;5.22;;;;;;;;;;5030028;28;20018;-40
2021/08/04 03:01:43;;;;;;;18.05;6.38;;;;;;;;;;5029822;28;20028;-42
2021/08/04 03:04:10;;;;;;;17.27;5.18;;;;;;;;;;5027657;28;20040;-40
2021/08/04 03:06:37;;;;;;;13.82;5.15;;;;;;;;;;5029348;28;20416;-40
2021/08/04 03:09:04;;;;;;;16.95;5.82;;;;;;;;;;5028686;28;20021;-40
2021/08/04 03:11:31;;;;;;;17.15;5.53;;;;;;;;;;5021482;28;20040;-42
2021/08/04 03:13:58;;;;;;;19.10;4.68;;;;;;;;;;5030260;28;20359;-40
2021/08/04 03:16:25;;;;;;;18.58;5.00;;;;;;;;;;5030688;28;20033;-39
2021/08/04 03:18:52;;;;;;;13.05;4.97;;;;;;;;;;5030119;28;20128;-40
2021/08/04 03:21:19;;;;;;;17.15;5.47;;;;;;;;;;5030689;28;20466;-40
2021/08/04 03:23:46;;;;;;;14.50;4.93;;;;;;;;;;5030394;28;20017;-39
2021/08/04 03:26:13;;;;;;;22.27;4.82;;;;;;;;;;5030484;28;20033;-40
2021/08/04 03:28:40;;;;;;;14.93;5.07;;;;;;;;;;5030591;28;20024;-40
2021/08/04 03:31:07;;;;;;;19.73;5.47;;;;;;;;;;5030622;28;20024;-39
2021/08/04 03:33:34;;;;;;;16.30;5.15;;;;;;;;;;5030406;28;20013;-40
2021/08/04 03:36:01;;;;;;;13.60;4.55;;;;;;;;;;5030132;28;20038;-41
2021/08/04 03:38:28;;;;;;;12.43;4.60;;;;;;;;;;5013064;28;20033;-40
2021/08/04 03:40:55;;;;;;;13.15;5.00;;;;;;;;;;5030209;28;20018;-40
2021/08/04 03:43:22;;;;;;;15.63;5.18;;;;;;;;;;5030821;28;20029;-40
2021/08/04 03:45:49;;;;;;;15.93;5.38;;;;;;;;;;5030297;28;20024;-40
2021/08/04 03:48:17;;;;;;;11.55;4.80;;;;;;;;;;5030427;28;20028;-41
2021/08/04 03:50:44;;;;;;;8.85;4.40;;;;;;;;;;5029828;28;20056;-40
2021/08/04 03:53:11;;;;;;;11.15;4.18;;;;;;;;;;5030618;28;20071;-39
2021/08/04 03:55:38;;;;;;;17.88;5.25;;;;;;;;;;5029861;28;20029;-41
2021/08/04 03:58:05;;;;;;;11.85;4.07;;;;;;;;;;5030829;28;20458;-40
2021/08/04 04:00:32;;;;;;;10.65;4.53;;;;;;;;;;5029415;28;20030;-40
2021/08/04 04:02:59;;;;;;;10.43;4.32;;;;;;;;;;5030455;28;20041;-40
2021/08/04 04:05:26;;;;;;;15.43;5.60;;;;;;;;;;5029741;28;20033;-40
2021/08/04 04:07:53;;;;;;;12.48;4.85;;;;;;;;;;5029839;28;20013;-39
2021/08/04 04:10:22;;;;;;;13.05;4.35;;;;;;;;;;5029543;28;20056;-40
2021/08/04 04:12:48;;;;;;;15.40;4.60;;;;;;;;;;5030217;28;20396;-41
2021/08/04 04:15:16;;;;;;;11.30;4.38;;;;;;;;;;5030495;28;20400;-39
2021/08/04 04:17:43;;;;;;;11.57;3.92;;;;;;;;;;5032934;28;20484;-40
2021/08/04 04:20:12;;;;;;;15.07;4.78;;;;;;;;;;5033907;28;20427;-39
2021/08/04 04:22:43;;;;;;;7.82;3.88;;;;;;;;;;5034092;28;20022;-39
2021/08/04 04:25:12;;;;;;;13.75;4.22;;;;;;;;;;5034074;28;20048;-40
2021/08/04 04:27:40;;;;;;;10.85;4.13;;;;;;;;;;5033429;28;20026;-41
2021/08/04 04:30:08;;;;;;;12.10;4.75;;;;;;;;;;5034118;28;20025;-40
2021/08/04 04:32:35;;;;;;;9.52;4.15;;;;;;;;;;5033717;28;20029;-46
2021/08/04 04:35:02;;;;;;;11.73;4.93;;;;;;;;;;5033822;28;20022;-39
2021/08/04 04:37:29;;;;;;;12.40;3.88;;;;;;;;;;5033793;28;20098;-39
2021/08/04 04:39:56;;;;;;;9.65;3.95;;;;;;;;;;5033716;28;20176;-40
2021/08/04 04:42:23;;;;;;;10.25;3.65;;;;;;;;;;5033533;28;20025;-40
2021/08/04 04:44:50;;;;;;;11.25;4.45;;;;;;;;;;5033800;28;20022;-40
2021/08/04 04:47:17;;;;;;;9.77;3.90;;;;;;;;;;5032951;28;20036;-40
2021/08/04 04:49:44;;;;;;;10.63;4.50;;;;;;;;;;5033816;28;20014;-41
2021/08/04 04:52:11;;;;;;;11.90;4.40;;;;;;;;;;5033152;28;20128;-40
2021/08/04 04:54:38;;;;;;;6.32;3.58;;;;;;;;;;5033729;28;20013;-39
2021/08/04 04:57:05;;;;;;;9.18;4.22;;;;;;;;;;5033286;28;20033;-40
2021/08/04 04:59:32;;;;;;;11.38;3.90;;;;;;;;;;5033417;28;20024;-39
2021/08/04 05:01:59;;;;;;;8.00;4.00;;;;;;;;;;5032775;28;20040;-40
2021/08/04 05:04:26;;;;;;;9.48;3.95;;;;;;;;;;5033206;28;20017;-39
2021/08/04 05:06:53;;;;;;;7.95;3.70;;;;;;;;;;5016119;28;20612;-40
2021/08/04 05:09:20;;;;;;;10.32;4.10;;;;;;;;;;5032582;28;20021;-39
2021/08/04 05:11:47;;;;;;;12.18;4.00;;;;;;;;;;5032876;28;20087;-40
2021/08/04 05:14:14;;;;;;;7.45;3.60;;;;;;;;;;5031312;28;20021;-43
2021/08/04 05:16:41;;;;;;;8.07;3.90;;;;;;;;;;5032833;28;20091;-45
2021/08/04 05:19:08;;;;;;;8.73;4.00;;;;;;;;;;5032797;28;20025;-42
2021/08/04 05:21:35;;;;;;;10.60;4.35;;;;;;;;;;5032767;28;20021;-44
2021/08/04 05:24:02;;;;;;;7.95;3.70;;;;;;;;;;5032925;28;20370;-41
2021/08/04 05:26:29;;;;;;;9.13;4.00;;;;;;;;;;5033119;28;20017;-44
2021/08/04 05:28:57;;;;;;;7.82;3.55;;;;;;;;;;5031337;28;20354;-41
2021/08/04 05:31:24;;;;;;;7.30;3.75;;;;;;;;;;5032742;28;20537;-42
2021/08/04 05:33:51;;;;;;;10.18;3.70;;;;;;;;;;5032618;28;20084;-42
2021/08/04 05:36:18;;;;;;;8.90;4.13;;;;;;;;;;5033032;28;20568;-44
2021/08/04 05:38:45;;;;;;;13.02;4.50;;;;;;;;;;5032900;28;20021;-39
2021/08/04 05:41:12;;;;;;;10.65;3.90;;;;;;;;;;5014637;28;20557;-40
2021/08/04 05:43:39;;;;;;;8.75;3.67;;;;;;;;;;5032626;28;20380;-45
2021/08/04 05:46:06;;;;;;;6.97;3.92;;;;;;;;;;5031207;28;20025;-44
2021/08/04 05:48:33;;;;;;;8.52;3.63;;;;;;;;;;5014763;28;20100;-41
2021/08/04 05:51:00;;;;;;;8.73;3.58;;;;;;;;;;5031897;28;20029;-41
2021/08/04 05:53:27;;;;;;;6.97;3.97;;;;;;;;;;5032723;28;20044;-40
2021/08/04 05:55:54;;;;;;;13.30;3.60;;;;;;;;;;5031838;28;20037;-42
2021/08/04 05:58:21;;;;;;;8.98;3.40;;;;;;;;;;5032669;28;20377;-41
2021/08/04 06:00:48;;;;;;;8.15;3.50;;;;;;;;;;5031485;28;20049;-45
2021/08/04 06:03:15;;;;;;;9.40;3.13;;;;;;;;;;5032080;28;20064;-44
2021/08/04 06:05:42;;;;;;;8.25;3.65;;;;;;;;;;5031721;28;20026;-44
2021/08/04 06:08:10;;;;;;;5.35;3.47;;;;;;;;;;5032355;28;20381;-44
2021/08/04 06:10:38;;;;;;;10.05;3.30;;;;;;;;;;5031701;28;20053;-45
2021/08/04 06:13:05;;;;;;;8.02;3.65;;;;;;;;;;5031799;28;20021;-44
2021/08/04 06:15:32;;;;;;;6.88;3.60;;;;;;;;;;5031627;28;20041;-43
2021/08/04 06:17:59;;;;;;;7.63;3.55;;;;;;;;;;5031902;28;20053;-43
2021/08/04 06:20:26;;;;;;;7.53;3.53;;;;;;;;;;5014428;28;20025;-44
2021/08/04 06:22:53;;;;;;;9.32;3.58;;;;;;;;;;5031251;28;20480;-40
2021/08/04 06:25:20;;;;;;;8.48;3.10;;;;;;;;;;5032108;28;21146;-39
2021/08/04 06:27:49;;;;;;;7.55;3.50;;;;;;;;;;5031206;28;20013;-39
2021/08/04 06:30:16;;;;;;;8.40;3.13;;;;;;;;;;5031886;28;20030;-39
2021/08/04 06:32:43;;;;;;;5.50;3.03;;;;;;;;;;5013379;28;20026;-39
2021/08/04 06:35:10;;;;;;;7.60;3.63;;;;;;;;;;5031354;28;20051;-39
2021/08/04 06:37:37;;;;;;;7.68;3.20;;;;;;;;;;5031369;28;20106;-40
2021/08/04 06:40:05;;;;;;;5.28;2.95;;;;;;;;;;5031504;28;20473;-44
2021/08/04 06:42:32;;;;;;;7.13;3.47;;;;;;;;;;5031192;28;20529;-43
2021/08/04 06:44:59;;;;;;;9.45;3.47;;;;;;;;;;5031207;28;20025;-43
2021/08/04 06:47:26;;;;;;;5.70;3.70;;;;;;;;;;5031143;28;20560;-40
2021/08/04 06:49:53;;;;;;;5.50;2.83;;;;;;;;;;5031296;28;20508;-42
2021/08/04 06:52:20;;;;;;;8.80;3.70;;;;;;;;;;5031010;28;20164;-42
2021/08/04 06:54:47;;;;;;;7.28;3.17;;;;;;;;;;5031695;28;20040;-43
2021/08/04 06:57:14;;;;;;;5.10;3.13;;;;;;;;;;5030871;28;20493;-44
2021/08/04 06:59:41;;;;;;;6.72;3.17;;;;;;;;;;5031108;28;20032;-43
2021/08/04 07:02:08;;;;;;;8.55;3.40;;;;;;;;;;5013177;28;20625;-40
2021/08/04 07:04:35;;;;;;;7.70;3.00;;;;;;;;;;5030786;28;20028;-39
2021/08/04 07:07:03;;;;;;;6.80;3.30;;;;;;;;;;5013500;28;20025;-40
2021/08/04 07:09:32;;;;;;;6.97;3.22;;;;;;;;;;5030847;28;20025;-40
2021/08/04 07:11:59;;;;;;;7.00;2.92;;;;;;;;;;5013455;28;20099;-40
2021/08/04 07:14:26;;;;;;;6.97;3.45;;;;;;;;;;5030235;28;20026;-40
2021/08/04 07:16:53;;;;;;;6.13;3.20;;;;;;;;;;5031266;28;20025;-39
2021/08/04 07:19:20;;;;;;;7.03;3.53;;;;;;;;;;5012705;28;20021;-40
2021/08/04 07:21:47;;;;;;;7.85;3.28;;;;;;;;;;5030834;28;20021;-40
2021/08/04 07:24:15;;;;;;;6.60;3.20;;;;;;;;;;5029872;28;20065;-40
2021/08/04 07:26:43;;;;;;;5.53;3.03;;;;;;;;;;5030895;28;20071;-39
2021/08/04 07:29:11;;;;;;;4.65;2.78;;;;;;;;;;5030372;28;20036;-40
2021/08/04 07:31:38;;;;;;;6.80;3.47;;;;;;;;;;5030753;28;20017;-40
2021/08/04 07:34:05;;;;;;;8.15;3.08;;;;;;;;;;5030202;28;20022;-43
2021/08/04 07:36:32;;;;;;;4.68;2.65;;;;;;;;;;5030594;28;20025;-45
2021/08/04 07:38:59;;;;;;;6.45;2.85;;;;;;;;;;5030670;28;20026;-44
2021/08/04 07:41:26;;;;;;;7.05;2.80;;;;;;;;;;5030498;28;20021;-40
2021/08/04 07:43:53;;;;;;;6.72;3.00;;;;;;;;;;5030147;28;20022;-39
2021/08/04 07:46:23;;;;;;;4.40;3.00;;;;;;;;;;5030455;28;20021;-44
2021/08/04 07:48:50;;;;;;;6.93;2.80;;;;;;;;;;5030674;28;20022;-44
2021/08/04 07:51:18;;;;;;;9.35;2.92;;;;;;;;;;5029682;28;20075;-42
2021/08/04 07:53:45;;;;;;;7.00;3.10;;;;;;;;;;5030238;28;20026;-40
2021/08/04 07:56:12;;;;;;;11.35;3.05;;;;;;;;;;5030280;28;20041;-41
2021/08/04 07:58:39;;;;;;;6.22;3.53;;;;;;;;;;5030339;28;20369;-39
2021/08/04 08:01:06;;;;;;;5.72;2.60;;;;;;;;;;5029915;28;20465;-40
2021/08/04 08:03:33;;;;;;;5.57;2.83;;;;;;;;;;5012369;28;21035;-40
2021/08/04 08:06:01;;;;;;;4.75;2.80;;;;;;;;;;5030122;28;20017;-40
2021/08/04 08:08:28;;;;;;;8.10;2.75;;;;;;;;;;5030509;28;20021;-40
2021/08/04 08:10:56;;;;;;;6.00;2.90;;;;;;;;;;5016284;28;20096;-42
2021/08/04 08:13:23;;;;;;;5.63;2.65;;;;;;;;;;5030017;28;20107;-40
2021/08/04 08:15:50;;;;;;;5.20;3.08;;;;;;;;;;5029820;28;20033;-40
2021/08/04 08:18:17;;;;;;;6.15;3.10;;;;;;;;;;5030870;28;20017;-39
2021/08/04 08:20:44;;;;;;;4.50;2.67;;;;;;;;;;5029861;28;20048;-39
2021/08/04 08:23:12;;;;;;;5.80;3.05;;;;;;;;;;5030369;28;20424;-40
2021/08/04 08:25:39;;;;;;;4.47;2.70;;;;;;;;;;5030133;28;20148;-40
2021/08/04 08:28:07;;;;;;;6.57;2.65;;;;;;;;;;5029957;28;20060;-40
2021/08/04 08:30:35;;;;;;;6.15;2.88;;;;;;;;;;5030283;28;20053;-40
2021/08/04 08:33:02;;;;;;;6.38;3.30;;;;;;;;;;5029874;28;20028;-41
2021/08/04 08:35:30;;;;;;;6.50;2.80;;;;;;;;;;5030022;28;20112;-39
2021/08/04 08:37:57;;;;;;;3.65;2.60;;;;;;;;;;5029641;28;21011;-41
2021/08/04 08:40:25;;;;;;;6.72;2.90;;;;;;;;;;5030166;28;20045;-40
2021/08/04 08:42:52;;;;;;;10.10;2.75;;;;;;;;;;5029820;28;20088;-40
2021/08/04 08:45:20;;;;;;;9.05;2.80;;;;;;;;;;5029741;28;20075;-39
2021/08/04 08:47:47;;;;;;;6.45;2.60;;;;;;;;;;5030029;28;20025;-40
2021/08/04 08:50:15;;;;;;;9.80;3.20;;;;;;;;;;5011896;28;20093;-40
2021/08/04 08:52:42;;;;;;;7.03;3.03;;;;;;;;;;5029703;28;20037;-41
2021/08/04 08:55:15;;;;;;;5.60;2.60;;;;;;;;;;5029497;28;20052;-40
2021/08/04 08:57:43;;;;;;;5.63;2.83;;;;;;;;;;5029636;28;20033;-41
2021/08/04 09:00:10;;;;;;;5.82;2.80;;;;;;;;;;5012055;28;20431;-39
2021/08/04 09:02:37;;;;;;;4.55;2.65;;;;;;;;;;5029454;28;20103;-40
2021/08/04 09:05:06;;;;;;;8.82;2.80;;;;;;;;;;5033518;28;20022;-39
2021/08/04 09:07:43;;;;;;;6.32;2.92;;;;;;;;;;5032996;28;20056;-40
2021/08/04 09:10:16;;;;;;;4.80;2.80;;;;;;;;;;5033300;28;20052;-40
2021/08/04 09:12:52;;;;;;;5.13;2.83;;;;;;;;;;5032861;28;20022;-39
2021/08/04 09:15:29;;;;;;;5.45;2.85;;;;;;;;;;5032906;28;20060;-40
2021/08/04 09:18:00;;;;;;;6.50;2.97;;;;;;;;;;5033257;28;20423;-40
2021/08/04 09:20:27;;;;;;;5.03;2.75;;;;;;;;;;5033034;28;20025;-40
2021/08/04 09:23:01;;;;;;;4.63;2.60;;;;;;;;;;5032795;28;20021;-42
2021/08/04 09:25:29;;;;;;;3.97;2.70;;;;;;;;;;5032611;28;20025;-42
2021/08/04 09:27:59;;;;;;;5.78;2.92;;;;;;;;;;5032518;28;20056;-40
2021/08/04 09:30:28;;;;;;;6.97;2.85;;;;;;;;;;5018797;28;20029;-40
2021/08/04 09:33:15;;;;;;;5.60;3.00;;;;;;;;;;5029462;28;20104;-40
2021/08/04 09:35:59;;;;;;;5.57;3.17;;;;;;;;;;5022272;28;20047;-39
2021/08/04 09:38:26;;;;;;;7.18;2.92;;;;;;;;;;5032626;28;20025;-39
2021/08/04 09:41:15;;;;;;;8.98;3.28;;;;;;;;;;5032106;28;20022;-39
2021/08/04 09:43:48;;;;;;;5.25;2.90;;;;;;;;;;5030794;28;20455;-40
2021/08/04 09:46:25;;;;;;;10.23;2.95;;;;;;;;;;5031884;28;20026;-39
2021/08/04 09:48:53;;;;;;;14.85;3.10;;;;;;;;;;5032621;28;20025;-39
2021/08/04 09:51:21;;;;;;;11.00;2.83;;;;;;;;;;5031803;28;20028;-40
2021/08/04 09:53:52;;;;;;;5.20;2.50;;;;;;;;;;5031245;28;21128;-39
2021/08/04 09:56:22;;;;;;;9.85;2.85;;;;;;;;;;5031902;28;20156;-39
2021/08/04 09:58:53;;;;;;;10.57;3.13;;;;;;;;;;5032174;28;20358;-41
2021/08/04 10:01:22;;;;;;;16.27;3.25;;;;;;;;;;5026804;28;20031;-40
2021/08/04 10:04:04;;;;;;;9.43;2.83;;;;;;;;;;5031495;28;20433;-39
2021/08/04 10:06:32;;;;;;;9.32;3.35;;;;;;;;;;5010707;28;20426;-39
2021/08/04 10:09:03;;;;;;;7.03;3.15;;;;;;;;;;5031365;28;20080;-39
2021/08/04 10:11:30;;;;;;;9.32;3.25;;;;;;;;;;5030919;28;20430;-39
2021/08/04 10:13:58;;;;;;;7.00;2.67;;;;;;;;;;5030997;28;20018;-40
2021/08/04 10:16:29;;;;;;;10.07;3.10;;;;;;;;;;5028090;28;20053;-40
2021/08/04 10:18:57;;;;;;;8.32;3.03;;;;;;;;;;5031570;28;20033;-39
2021/08/04 10:21:24;;;;;;;6.55;2.70;;;;;;;;;;5028887;28;20543;-39
2021/08/04 10:23:52;;;;;;;8.23;2.70;;;;;;;;;;5031631;28;20071;-41
2021/08/04 10:26:20;;;;;;;11.57;3.03;;;;;;;;;;5031058;28;20013;-40
2021/08/04 10:28:51;;;;;;;5.20;3.10;;;;;;;;;;5031899;28;20072;-44
2021/08/04 10:31:19;;;;;;;5.55;3.03;;;;;;;;;;5031082;28;20095;-41
2021/08/04 10:33:46;;;;;;;8.77;2.90;;;;;;;;;;5028643;28;20101;-41
2021/08/04 10:36:14;;;;;;;8.75;2.88;;;;;;;;;;5030775;28;20072;-45
2021/08/04 10:38:48;;;;;;;7.05;3.00;;;;;;;;;;5031770;28;20057;-45
2021/08/04 10:41:22;;;;;;;6.80;2.95;;;;;;;;;;5031644;28;20473;-46
2021/08/04 10:43:53;;;;;;;5.60;2.85;;;;;;;;;;5025236;28;20048;-41
2021/08/04 10:46:29;;;;;;;6.03;2.80;;;;;;;;;;5013378;28;20116;-40
2021/08/04 10:48:57;;;;;;;4.28;2.35;;;;;;;;;;5023314;28;20238;-41
2021/08/04 10:51:25;;;;;;;7.30;3.20;;;;;;;;;;5031391;28;20022;-41
2021/08/04 10:54:04;;;;;;;7.65;3.10;;;;;;;;;;5030858;28;20024;-40
2021/08/04 10:56:39;;;;;;;9.35;2.90;;;;;;;;;;5024701;28;20393;-43
2021/08/04 10:59:09;;;;;;;11.50;3.08;;;;;;;;;;5025415;28;20057;-41
2021/08/04 11:01:50;;;;;;;5.32;2.80;;;;;;;;;;5031010;28;20033;-39
2021/08/04 11:04:17;;;;;;;8.98;3.13;;;;;;;;;;5030820;28;20486;-39
2021/08/04 11:07:05;;;;;;;5.63;2.85;;;;;;;;;;5031138;28;20030;-39
2021/08/04 11:09:36;;;;;;;5.97;3.40;;;;;;;;;;5030107;28;20116;-39
2021/08/04 11:12:04;;;;;;;8.10;3.05;;;;;;;;;;5031152;28;20108;-39
2021/08/04 11:14:40;;;;;;;6.60;3.20;;;;;;;;;;5030123;28;20033;-39
2021/08/04 11:17:09;;;;;;;6.60;2.90;;;;;;;;;;5030530;28;20029;-39
2021/08/04 11:19:54;;;;;;;6.63;3.03;;;;;;;;;;5030228;28;20021;-39
2021/08/04 11:22:22;;;;;;;11.23;2.97;;;;;;;;;;5031019;28;20532;-39
2021/08/04 11:25:15;;;;;;;9.55;3.53;;;;;;;;;;5030253;28;20420;-39
2021/08/04 11:27:45;;;;;;;7.90;3.13;;;;;;;;;;5021704;28;20037;-39
2021/08/04 11:30:13;;;;;;;7.05;2.90;;;;;;;;;;5030409;28;20032;-39
2021/08/04 11:32:40;;;;;;;7.15;3.80;;;;;;;;;;5031010;28;20017;-39
2021/08/04 11:35:20;;;;;;;11.85;3.20;;;;;;;;;;5029838;28;20025;-40
2021/08/04 11:37:47;;;;;;;9.02;3.10;;;;;;;;;;5030429;28;20034;-39
2021/08/04 11:40:14;;;;;;;10.65;3.08;;;;;;;;;;5029774;28;20024;-39
2021/08/04 11:42:41;;;;;;;7.85;3.05;;;;;;;;;;5030144;28;20024;-39
2021/08/04 11:45:10;;;;;;;7.65;2.80;;;;;;;;;;5029791;28;20026;-39
2021/08/04 11:47:37;;;;;;;13.20;3.75;;;;;;;;;;5030615;28;20372;-40
2021/08/04 11:50:07;;;;;;;10.35;3.80;;;;;;;;;;5028971;28;20021;-39
2021/08/04 11:52:34;;;;;;;9.63;5.13;;;;;;;;;;5030450;28;20053;-39
2021/08/04 11:55:05;;;;;;;7.93;3.40;;;;;;;;;;5029697;28;20029;-39
2021/08/04 11:57:33;;;;;;;9.05;3.67;;;;;;;;;;5027821;28;20041;-39
2021/08/04 12:00:07;;;;;;;10.18;3.47;;;;;;;;;;5029051;28;20067;-40
2021/08/04 12:02:35;;;;;;;10.35;3.20;;;;;;;;;;5028250;28;20041;-39
2021/08/04 12:05:03;;;;;;;12.13;3.42;;;;;;;;;;5030157;28;20101;-39
2021/08/04 12:07:31;;;;;;;9.20;3.42;;;;;;;;;;5024192;28;20076;-39
2021/08/04 12:10:02;;;;;;;9.65;3.63;;;;;;;;;;5030332;28;20028;-39
2021/08/04 12:12:35;;;;;;;9.00;3.47;;;;;;;;;;5029995;28;20097;-39
2021/08/04 12:15:04;;;;;;;9.90;3.47;;;;;;;;;;5029507;28;20026;-41
2021/08/04 12:17:32;;;;;;;10.00;4.43;;;;;;;;;;5028901;28;20135;-39
2021/08/04 12:20:19;;;;;;;10.38;3.90;;;;;;;;;;5029615;28;20509;-40
2021/08/04 12:22:56;;;;;;;12.40;3.58;;;;;;;;;;5028869;28;20030;-39
2021/08/04 12:25:23;;;;;;;9.10;3.60;;;;;;;;;;5030044;28;20029;-39
2021/08/04 12:27:51;;;;;;;7.97;3.50;;;;;;;;;;5028777;28;20145;-36
2021/08/04 12:30:21;;;;;;;9.23;3.38;;;;;;;;;;5030376;28;20485;-43
2021/08/04 12:32:49;;;;;;;9.52;3.58;;;;;;;;;;5012092;28;20056;-41
2021/08/04 12:35:21;;;;;;;13.32;3.67;;;;;;;;;;5029979;28;20025;-44
2021/08/04 12:37:49;;;;;;;14.73;3.63;;;;;;;;;;5028687;28;20769;-43
2021/08/04 12:40:16;;;;;;;12.38;3.97;;;;;;;;;;5033033;28;20021;-42
2021/08/04 12:42:43;;;;;;;8.55;3.83;;;;;;;;;;5030995;28;20033;-39
2021/08/04 12:45:22;;;;;;;12.23;3.70;;;;;;;;;;5039584;28;20108;-39
2021/08/04 12:47:50;;;;;;;9.32;3.97;;;;;;;;;;5044465;28;20082;-38
2021/08/04 12:50:17;;;;;;;14.40;4.03;;;;;;;;;;5037950;28;20466;-38
2021/08/04 12:52:45;;;;;;;10.70;3.88;;;;;;;;;;5035100;28;20038;-38
2021/08/04 12:55:17;;;;;;;10.48;3.72;;;;;;;;;;5037688;28;20108;-38
2021/08/04 12:57:44;;;;;;;10.93;4.07;;;;;;;;;;5041071;28;20063;-38
2021/08/04 13:00:26;;;;;;;8.77;3.58;;;;;;;;;;5036178;28;20025;-38
2021/08/04 13:02:53;;;;;;;14.35;4.85;;;;;;;;;;5031067;28;20041;-38
2021/08/04 13:05:20;;;;;;;15.95;4.55;;;;;;;;;;5039279;28;20469;-41
2021/08/04 13:07:47;;;;;;;13.77;4.43;;;;;;;;;;5039508;28;20064;-39
2021/08/04 13:10:14;;;;;;;12.13;4.50;;;;;;;;;;5035174;28;20033;-44
2021/08/04 13:12:41;;;;;;;9.95;4.18;;;;;;;;;;5032966;28;20017;-40
2021/08/04 13:15:12;;;;;;;12.75;3.80;;;;;;;;;;5033143;28;20029;-40
2021/08/04 13:17:49;;;;;;;17.38;4.78;;;;;;;;;;5031737;28;20033;-40
2021/08/04 13:20:17;;;;;;;10.77;4.10;;;;;;;;;;5036635;28;20029;-39
2021/08/04 13:22:48;;;;;;;14.73;4.53;;;;;;;;;;5032690;28;20117;-41
2021/08/04 13:25:15;;;;;;;14.05;4.30;;;;;;;;;;5032929;28;20025;-42
2021/08/04 13:27:53;;;;;;;17.38;4.32;;;;;;;;;;5032495;28;20033;-40
2021/08/04 13:30:22;;;;;;;17.90;4.63;;;;;;;;;;5031662;28;20026;-41
2021/08/04 13:32:49;;;;;;;17.27;4.40;;;;;;;;;;5032117;28;20025;-38
2021/08/04 13:35:16;;;;;;;9.30;4.00;;;;;;;;;;5031509;28;20025;-43
2021/08/04 13:37:43;;;;;;;17.35;4.25;;;;;;;;;;5032441;28;20079;-39
2021/08/04 13:40:11;;;;;;;12.82;4.38;;;;;;;;;;5030686;28;20028;-39
2021/08/04 13:42:42;;;;;;;12.20;4.18;;;;;;;;;;5032851;28;20028;-39
2021/08/04 13:45:10;;;;;;;12.27;4.43;;;;;;;;;;5032219;28;20025;-39
2021/08/04 13:47:37;;;;;;;18.60;4.80;;;;;;;;;;5032755;28;20030;-39
2021/08/04 13:50:05;;;;;;;10.63;4.72;;;;;;;;;;5031137;28;20029;-39
2021/08/04 13:52:33;;;;;;;18.45;4.60;;;;;;;;;;5032871;28;20087;-39
2021/08/04 13:55:01;;;;;;;15.25;4.53;;;;;;;;;;5032064;28;20032;-38
2021/08/04 13:57:28;;;;;;;11.82;4.38;;;;;;;;;;5032571;28;20030;-49
2021/08/04 13:59:55;;;;;;;8.60;4.20;;;;;;;;;;5031955;28;20014;-39
2021/08/04 14:02:23;;;;;;;8.65;4.32;;;;;;;;;;5032317;28;20041;-39
2021/08/04 14:04:50;;;;;;;16.38;5.07;;;;;;;;;;5032184;28;20518;-43
2021/08/04 14:07:17;;;;;;;15.40;4.38;;;;;;;;;;5032449;28;20025;-39
2021/08/04 14:09:44;;;;;;;8.73;4.95;;;;;;;;;;5014613;28;20507;-38
2021/08/04 14:12:11;;;;;;;8.15;4.30;;;;;;;;;;5031992;28;20041;-40
2021/08/04 14:14:38;;;;;;;14.15;4.10;;;;;;;;;;5032429;28;20032;-39
2021/08/04 14:17:05;;;;;;;11.82;3.92;;;;;;;;;;5013969;28;20037;-39
2021/08/04 14:19:32;;;;;;;11.48;3.78;;;;;;;;;;5014550;28;20445;-45
2021/08/04 14:21:59;;;;;;;14.45;4.40;;;;;;;;;;5030585;28;20492;-43
2021/08/04 14:24:26;;;;;;;12.70;4.85;;;;;;;;;;5032222;28;20029;-39
2021/08/04 14:26:53;;;;;;;13.27;4.45;;;;;;;;;;5031240;28;20469;-45
2021/08/04 14:29:20;;;;;;;14.27;3.90;;;;;;;;;;5031882;28;20020;-39
2021/08/04 14:31:47;;;;;;;17.48;4.75;;;;;;;;;;5033863;28;20032;-45
2021/08/04 14:34:14;;;;;;;11.73;4.72;;;;;;;;;;5038410;28;20029;-39
2021/08/04 14:36:41;;;;;;;12.45;4.07;;;;;;;;;;5034274;28;20029;-43
2021/08/04 14:39:08;;;;;;;12.88;4.68;;;;;;;;;;5037638;28;20074;-39
2021/08/04 14:41:35;;;;;;;11.48;4.13;;;;;;;;;;5029736;28;20034;-45
2021/08/04 14:44:02;;;;;;;12.57;5.40;;;;;;;;;;5031516;28;20028;-39